createdAt,value
2022-09-25T00:00:48.221Z,17.08
2022-09-25T00:03:16.229Z,17.07
2022-09-25T00:05:45.556Z,17.01
2022-09-25T00:08:12.585Z,17.07
2022-09-25T00:10:57.219Z,16.77
2022-09-25T00:13:23.854Z,16.58
2022-09-25T00:15:55.933Z,16.82
2022-09-25T00:18:42.446Z,16.79
2022-09-25T00:21:12.591Z,16.75
2022-09-25T00:23:39.661Z,16.78
2022-09-25T00:26:08.075Z,16.79
2022-09-25T00:28:36.354Z,16.52
2022-09-25T00:31:04.668Z,16.78
2022-09-25T00:33:32.900Z,16.82
2022-09-25T00:36:08.038Z,16.83
2022-09-25T00:38:36.645Z,16.19
2022-09-25T00:41:05.826Z,16.63
2022-09-25T00:43:37.501Z,16.55
2022-09-25T00:46:11.782Z,16.01
2022-09-25T00:48:42.222Z,16.68
2022-09-25T00:51:08.671Z,16.09
2022-09-25T00:53:40.932Z,16.31
2022-09-25T00:56:11.916Z,16.55
2022-09-25T00:58:39.689Z,16.66
2022-09-25T01:01:07.904Z,16.69
2022-09-25T01:03:35.758Z,16.88
2022-09-25T01:06:03.068Z,16.83
2022-09-25T01:08:32.275Z,16.74
2022-09-25T01:10:58.592Z,16.20
2022-09-25T01:13:26.215Z,16.71
2022-09-25T01:16:08.094Z,16.32
2022-09-25T01:18:55.702Z,16.73
2022-09-25T01:21:36.545Z,16.69
2022-09-25T01:24:15.175Z,16.57
2022-09-25T01:27:06.649Z,16.63
2022-09-25T01:29:57.903Z,16.61
2022-09-25T01:32:41.782Z,16.66
2022-09-25T01:35:33.533Z,16.69
2022-09-25T01:38:10.519Z,16.67
2022-09-25T01:41:02.545Z,16.04
2022-09-25T01:43:37.826Z,16.73
2022-09-25T01:46:16.839Z,16.69
2022-09-25T01:48:47.108Z,16.61
2022-09-25T01:51:23.443Z,16.55
2022-09-25T01:54:02.052Z,16.32
2022-09-25T01:56:39.668Z,16.56
2022-09-25T01:59:10.947Z,16.58
2022-09-25T02:01:41.723Z,16.44
2022-09-25T02:04:32.129Z,16.54
2022-09-25T02:07:03.614Z,15.99
2022-09-25T02:09:53.091Z,16.40
2022-09-25T02:12:26.996Z,16.51
2022-09-25T02:14:57.732Z,16.07
2022-09-25T02:17:53.329Z,16.64
2022-09-25T02:20:33.049Z,16.63
2022-09-25T02:23:15.688Z,16.65
2022-09-25T02:25:48.788Z,16.68
2022-09-25T02:28:15.482Z,16.48
2022-09-25T02:30:43.946Z,16.38
2022-09-25T02:33:10.375Z,16.62
2022-09-25T02:35:38.283Z,16.07
2022-09-25T02:38:05.186Z,15.96
2022-09-25T02:40:43.519Z,16.54
2022-09-25T02:43:32.337Z,16.36
2022-09-25T02:46:10.661Z,16.53
2022-09-25T02:49:22.493Z,16.58
2022-09-25T02:52:22.564Z,16.45
2022-09-25T02:55:04.154Z,16.59
2022-09-25T02:57:45.917Z,16.49
2022-09-25T03:00:13.386Z,16.44
2022-09-25T03:02:42.405Z,16.35
2022-09-25T03:05:13.031Z,16.47
2022-09-25T03:07:58.940Z,15.84
2022-09-25T03:10:28.054Z,16.31
2022-09-25T03:12:54.487Z,16.43
2022-09-25T03:15:23.686Z,16.25
2022-09-25T03:17:52.109Z,16.26
2022-09-25T03:20:18.538Z,16.46
2022-09-25T03:22:44.870Z,16.37
2022-09-25T03:25:11.187Z,16.31
2022-09-25T03:27:37.474Z,16.24
2022-09-25T03:30:06.041Z,15.89
2022-09-25T03:32:32.362Z,16.34
2022-09-25T03:34:58.846Z,16.25
2022-09-25T03:37:25.426Z,16.25
2022-09-25T03:39:51.758Z,15.84
2022-09-25T03:42:20.010Z,16.18
2022-09-25T03:44:46.476Z,16.09
2022-09-25T03:47:12.901Z,15.53
2022-09-25T03:49:39.228Z,16.00
2022-09-25T03:52:05.528Z,16.26
2022-09-25T03:54:31.931Z,16.18
2022-09-25T03:56:58.336Z,16.19
2022-09-25T03:59:24.743Z,16.12
2022-09-25T04:01:51.133Z,16.26
2022-09-25T04:04:17.565Z,16.29
2022-09-25T04:06:43.909Z,16.02
2022-09-25T04:09:10.295Z,16.02
2022-09-25T04:11:38.095Z,16.17
2022-09-25T04:14:05.149Z,16.03
2022-09-25T04:16:31.887Z,16.04
2022-09-25T04:18:58.375Z,15.87
2022-09-25T04:21:24.906Z,16.04
2022-09-25T04:24:09.770Z,16.18
2022-09-25T04:26:36.220Z,15.84
2022-09-25T04:29:03.304Z,16.11
2022-09-25T04:31:31.414Z,15.93
2022-09-25T04:33:57.897Z,16.04
2022-09-25T04:36:24.270Z,15.99
2022-09-25T04:38:50.729Z,15.70
2022-09-25T04:41:19.643Z,16.02
2022-09-25T04:43:46.058Z,15.96
2022-09-25T04:46:18.230Z,15.60
2022-09-25T04:48:46.943Z,15.87
2022-09-25T04:51:13.301Z,15.42
2022-09-25T04:53:40.573Z,15.14
2022-09-25T04:56:13.933Z,15.47
2022-09-25T04:58:48.362Z,15.94
2022-09-25T05:01:16.480Z,15.75
2022-09-25T05:03:43.207Z,15.48
2022-09-25T05:06:09.599Z,15.76
2022-09-25T05:08:35.984Z,15.85
2022-09-25T05:11:03.763Z,15.97
2022-09-25T05:13:30.171Z,15.36
2022-09-25T05:15:56.617Z,15.79
2022-09-25T05:18:24.230Z,15.49
2022-09-25T05:20:51.362Z,15.95
2022-09-25T05:23:17.768Z,15.94
2022-09-25T05:25:44.190Z,15.85
2022-09-25T05:28:11.175Z,15.58
2022-09-25T05:30:39.480Z,15.90
2022-09-25T05:33:05.849Z,15.88
2022-09-25T05:35:33.458Z,15.94
2022-09-25T05:38:00.069Z,15.68
2022-09-25T05:40:27.029Z,15.96
2022-09-25T05:42:55.140Z,15.87
2022-09-25T05:45:23.770Z,15.76
2022-09-25T05:48:00.938Z,14.87
2022-09-25T05:50:27.526Z,15.72
2022-09-25T05:53:02.275Z,15.71
2022-09-25T05:55:29.927Z,15.65
2022-09-25T05:58:03.825Z,15.42
2022-09-25T06:00:32.669Z,15.73
2022-09-25T06:03:00.933Z,15.46
2022-09-25T06:05:27.544Z,15.46
2022-09-25T06:07:55.367Z,15.47
2022-09-25T06:10:21.826Z,15.63
2022-09-25T06:12:48.542Z,14.70
2022-09-25T06:15:14.922Z,15.46
2022-09-25T06:17:41.436Z,15.29
2022-09-25T06:20:12.116Z,15.38
2022-09-25T06:22:41.971Z,15.48
2022-09-25T06:25:09.332Z,15.29
2022-09-25T06:27:35.673Z,15.33
2022-09-25T06:30:02.048Z,15.19
2022-09-25T06:32:28.376Z,15.14
2022-09-25T06:34:54.700Z,15.14
2022-09-25T06:37:21.012Z,14.75
2022-09-25T06:39:47.335Z,14.98
2022-09-25T06:42:13.677Z,15.17
2022-09-25T06:44:40.049Z,14.07
2022-09-25T06:47:06.559Z,15.00
2022-09-25T06:49:33.465Z,15.17
2022-09-25T06:52:00.151Z,14.58
2022-09-25T06:54:30.664Z,15.04
2022-09-25T06:56:57.248Z,15.23
2022-09-25T06:59:25.763Z,15.18
2022-09-25T07:01:52.301Z,15.22
2022-09-25T07:04:18.771Z,15.12
2022-09-25T07:06:45.761Z,14.51
2022-09-25T07:09:12.084Z,14.68
2022-09-25T07:11:39.171Z,15.39
2022-09-25T07:14:05.569Z,15.39
2022-09-25T07:16:34.082Z,15.23
2022-09-25T07:19:01.012Z,15.39
2022-09-25T07:21:30.571Z,15.32
2022-09-25T07:23:58.180Z,15.38
2022-09-25T07:26:28.271Z,15.50
2022-09-25T07:29:00.690Z,15.57
2022-09-25T07:31:32.808Z,15.65
2022-09-25T07:34:02.745Z,15.43
2022-09-25T07:36:29.142Z,15.71
2022-09-25T07:38:55.749Z,15.73
2022-09-25T07:41:23.222Z,15.50
2022-09-25T07:44:17.622Z,15.94
2022-09-25T07:46:44.385Z,16.08
2022-09-25T07:49:11.344Z,16.03
2022-09-25T07:51:37.829Z,16.03
2022-09-25T07:54:04.347Z,16.00
2022-09-25T07:56:31.034Z,16.16
2022-09-25T07:58:57.503Z,15.99
2022-09-25T08:01:23.949Z,15.83
2022-09-25T08:03:50.292Z,15.74
2022-09-25T08:06:17.061Z,16.24
2022-09-25T08:08:44.227Z,16.41
2022-09-25T08:11:16.777Z,16.46
2022-09-25T08:13:43.956Z,16.49
2022-09-25T08:16:13.493Z,16.19
2022-09-25T08:18:41.731Z,16.35
2022-09-25T08:21:09.631Z,16.81
2022-09-25T08:23:36.302Z,16.86
2022-09-25T08:26:02.823Z,16.38
2022-09-25T08:28:29.129Z,16.87
2022-09-25T08:31:00.204Z,17.05
2022-09-25T08:33:26.642Z,16.92
2022-09-25T08:36:01.851Z,17.12
2022-09-25T08:38:29.620Z,16.93
2022-09-25T08:41:03.752Z,16.89
2022-09-25T08:43:33.247Z,17.13
2022-09-25T08:46:23.050Z,17.16
2022-09-25T08:49:02.547Z,17.32
2022-09-25T08:51:40.346Z,17.43
2022-09-25T08:54:09.585Z,17.49
2022-09-25T08:56:36.381Z,16.86
2022-09-25T08:59:15.302Z,17.58
2022-09-25T09:01:49.820Z,17.62
2022-09-25T09:04:24.477Z,17.72
2022-09-25T09:07:24.671Z,17.88
2022-09-25T09:09:48.759Z,17.63
2022-09-25T09:12:19.824Z,18.15
2022-09-25T09:14:49.974Z,18.22
2022-09-25T09:17:22.268Z,18.24
2022-09-25T09:19:56.630Z,18.25
2022-09-25T09:22:36.304Z,18.48
2022-09-25T09:25:22.213Z,18.45
2022-09-25T09:28:20.324Z,18.79
2022-09-25T09:31:05.237Z,18.79
2022-09-25T09:34:18.135Z,18.67
2022-09-25T09:36:52.867Z,18.31
2022-09-25T09:39:38.210Z,18.41
2022-09-25T09:42:27.371Z,18.24
2022-09-25T09:45:13.219Z,18.33
2022-09-25T09:48:04.629Z,18.27
2022-09-25T09:50:52.984Z,18.38
2022-09-25T09:53:47.535Z,18.51
2022-09-25T09:56:19.657Z,18.45
2022-09-25T09:59:11.194Z,18.61
2022-09-25T10:01:42.183Z,18.32
2022-09-25T10:04:26.254Z,18.00
2022-09-25T10:07:18.253Z,18.08
2022-09-25T10:09:44.939Z,18.31
2022-09-25T10:12:32.800Z,18.50
2022-09-25T10:15:03.853Z,18.72
2022-09-25T10:17:31.092Z,19.10
2022-09-25T10:20:01.413Z,19.08
2022-09-25T10:22:33.118Z,19.03
2022-09-25T10:25:07.054Z,18.83
2022-09-25T10:27:41.206Z,18.85
2022-09-25T10:30:10.675Z,18.90
2022-09-25T10:33:09.881Z,19.04
2022-09-25T10:35:39.484Z,19.50
2022-09-25T10:38:35.160Z,19.70
2022-09-25T10:41:08.543Z,19.92
2022-09-25T10:43:35.036Z,19.84
2022-09-25T10:46:15.012Z,20.13
2022-09-25T10:49:01.098Z,19.92
2022-09-25T10:51:27.490Z,19.97
2022-09-25T10:54:12.662Z,20.26
2022-09-25T10:56:39.904Z,20.27
2022-09-25T10:59:17.546Z,20.04
2022-09-25T11:01:44.914Z,19.79
2022-09-25T11:04:23.106Z,20.55
2022-09-25T11:06:52.843Z,21.83
2022-09-25T11:09:22.544Z,21.83
2022-09-25T11:11:52.207Z,21.65
2022-09-25T11:14:32.522Z,21.32
2022-09-25T11:17:01.431Z,21.09
2022-09-25T11:19:30.886Z,20.81
2022-09-25T11:22:09.382Z,21.09
2022-09-25T11:24:48.746Z,21.01
2022-09-25T11:27:25.821Z,20.52
2022-09-25T11:30:09.774Z,20.66
2022-09-25T11:32:52.777Z,20.12
2022-09-25T11:35:34.619Z,20.60
2022-09-25T11:38:42.083Z,20.34
2022-09-25T11:41:22.835Z,20.13
2022-09-25T11:44:05.153Z,20.07
2022-09-25T11:46:48.999Z,19.72
2022-09-25T11:49:20.549Z,19.70
2022-09-25T11:52:18.609Z,19.92
2022-09-25T11:55:14.976Z,20.40
2022-09-25T11:57:51.588Z,20.21
2022-09-25T12:00:25.571Z,20.64
2022-09-25T12:03:21.167Z,20.82
2022-09-25T12:06:12.877Z,20.28
2022-09-25T12:08:54.669Z,21.17
2022-09-25T12:11:45.669Z,21.36
2022-09-25T12:14:33.106Z,21.39
2022-09-25T12:17:10.763Z,20.95
2022-09-25T12:19:47.371Z,20.86
2022-09-25T12:22:38.464Z,20.78
2022-09-25T12:25:29.461Z,20.83
2022-09-25T12:28:11.487Z,20.47
2022-09-25T12:30:57.066Z,20.23
2022-09-25T12:33:28.475Z,20.38
2022-09-25T12:36:10.534Z,20.74
2022-09-25T12:38:55.173Z,21.38
2022-09-25T12:41:29.726Z,22.09
2022-09-25T12:44:23.711Z,22.18
2022-09-25T12:47:01.828Z,21.84
2022-09-25T12:49:53.236Z,21.90
2022-09-25T12:52:29.415Z,21.88
2022-09-25T12:55:21.710Z,22.42
2022-09-25T12:58:23.054Z,23.06
2022-09-25T13:01:04.613Z,23.66
2022-09-25T13:04:10.656Z,24.52
2022-09-25T13:06:49.807Z,24.89
2022-09-25T13:09:45.028Z,24.65
2022-09-25T13:12:35.043Z,23.92
2022-09-25T13:15:12.930Z,23.10
2022-09-25T13:17:41.190Z,22.26
2022-09-25T13:20:26.295Z,21.90
2022-09-25T13:22:57.330Z,21.66
2022-09-25T13:25:25.314Z,21.71
2022-09-25T13:27:54.161Z,21.47
2022-09-25T13:30:28.347Z,21.72
2022-09-25T13:32:56.070Z,21.97
2022-09-25T13:35:23.874Z,21.53
2022-09-25T13:37:52.989Z,21.20
2022-09-25T13:40:45.165Z,20.85
2022-09-25T13:43:22.321Z,20.73
2022-09-25T13:45:50.266Z,20.54
2022-09-25T13:48:32.078Z,20.39
2022-09-25T13:51:16.910Z,20.37
2022-09-25T13:54:03.245Z,20.06
2022-09-25T13:56:41.532Z,20.15
2022-09-25T13:59:12.254Z,20.30
2022-09-25T14:01:41.644Z,20.41
2022-09-25T14:04:19.756Z,20.74
2022-09-25T14:06:52.334Z,20.97
2022-09-25T14:09:22.276Z,21.09
2022-09-25T14:12:03.440Z,21.23
2022-09-25T14:14:36.712Z,21.50
2022-09-25T14:17:04.248Z,21.21
2022-09-25T14:19:35.303Z,21.47
2022-09-25T14:22:04.804Z,21.53
2022-09-25T14:24:31.927Z,21.73
2022-09-25T14:27:01.398Z,21.85
2022-09-25T14:29:38.239Z,21.99
2022-09-25T14:32:50.389Z,22.12
2022-09-25T14:35:35.272Z,22.01
2022-09-25T14:38:35.809Z,21.89
2022-09-25T14:41:39.440Z,21.87
2022-09-25T14:44:25.682Z,21.69
2022-09-25T14:46:54.940Z,21.41
2022-09-25T14:49:30.361Z,21.01
2022-09-25T14:52:01.661Z,20.69
2022-09-25T14:54:35.783Z,20.88
2022-09-25T14:57:03.823Z,20.68
2022-09-25T14:59:39.449Z,20.49
2022-09-25T15:02:21.274Z,20.25
2022-09-25T15:04:47.599Z,20.42
2022-09-25T15:07:24.772Z,20.36
2022-09-25T15:09:55.414Z,20.41
2022-09-25T15:12:29.471Z,20.52
2022-09-25T15:15:03.701Z,20.68
2022-09-25T15:17:32.260Z,20.90
2022-09-25T15:20:02.845Z,21.14
2022-09-25T15:22:34.655Z,21.10
2022-09-25T15:25:04.177Z,20.39
2022-09-25T15:27:31.209Z,20.57
2022-09-25T15:30:00.110Z,20.32
2022-09-25T15:32:39.567Z,20.67
2022-09-25T15:35:22.501Z,20.97
2022-09-25T15:37:49.572Z,21.09
2022-09-25T15:40:28.668Z,21.35
2022-09-25T15:42:56.236Z,21.98
2022-09-25T15:45:41.399Z,22.54
2022-09-25T15:48:21.361Z,22.75
2022-09-25T15:50:48.871Z,23.18
2022-09-25T15:53:27.641Z,23.38
2022-09-25T15:56:05.369Z,23.59
2022-09-25T15:58:42.805Z,23.72
2022-09-25T16:01:31.628Z,23.92
2022-09-25T16:04:17.158Z,23.85
2022-09-25T16:06:45.143Z,23.67
2022-09-25T16:09:30.471Z,23.32
2022-09-25T16:12:22.113Z,23.12
2022-09-25T16:14:50.098Z,22.92
2022-09-25T16:17:22.759Z,22.78
2022-09-25T16:20:24.175Z,22.22
2022-09-25T16:22:54.257Z,21.78
2022-09-25T16:25:25.775Z,21.15
2022-09-25T16:27:54.832Z,20.79
2022-09-25T16:30:23.833Z,20.97
2022-09-25T16:32:54.368Z,20.70
2022-09-25T16:35:25.112Z,20.61
2022-09-25T16:37:52.548Z,20.42
2022-09-25T16:40:21.584Z,20.29
2022-09-25T16:42:48.408Z,20.05
2022-09-25T16:45:17.375Z,20.16
2022-09-25T16:47:49.309Z,20.23
2022-09-25T16:50:17.835Z,20.17
2022-09-25T16:52:45.935Z,19.97
2022-09-25T16:55:23.059Z,19.84
2022-09-25T16:57:51.431Z,19.69
2022-09-25T17:00:26.903Z,19.69
2022-09-25T17:02:53.995Z,19.37
2022-09-25T17:05:26.690Z,19.62
2022-09-25T17:07:56.429Z,19.92
2022-09-25T17:10:25.844Z,19.78
2022-09-25T17:12:54.260Z,19.75
2022-09-25T17:15:25.098Z,19.87
2022-09-25T17:17:55.873Z,19.94
2022-09-25T17:20:24.489Z,20.02
2022-09-25T17:22:52.457Z,19.84
2022-09-25T17:25:43.095Z,19.98
2022-09-25T17:28:10.783Z,19.95
2022-09-25T17:30:38.668Z,19.92
2022-09-25T17:33:06.340Z,19.85
2022-09-25T17:35:48.953Z,19.78
2022-09-25T17:38:15.247Z,19.58
2022-09-25T17:40:47.289Z,19.50
2022-09-25T17:43:15.437Z,19.05
2022-09-25T17:45:41.755Z,19.17
2022-09-25T17:48:08.054Z,19.14
2022-09-25T17:50:35.673Z,19.01
2022-09-25T17:53:04.980Z,19.28
2022-09-25T17:55:31.771Z,19.41
2022-09-25T17:57:58.070Z,19.36
2022-09-25T18:00:25.327Z,19.18
2022-09-25T18:02:51.834Z,19.28
2022-09-25T18:05:18.311Z,19.25
2022-09-25T18:07:44.975Z,19.18
2022-09-25T18:10:12.094Z,18.97
2022-09-25T18:12:38.450Z,19.05
2022-09-25T18:15:05.546Z,19.09
2022-09-25T18:17:31.859Z,19.20
2022-09-25T18:20:16.981Z,19.25
2022-09-25T18:22:44.487Z,19.23
2022-09-25T18:25:10.813Z,19.22
2022-09-25T18:27:39.609Z,19.20
2022-09-25T18:30:06.650Z,19.28
2022-09-25T18:32:33.007Z,19.33
2022-09-25T18:34:59.411Z,19.30
2022-09-25T18:37:25.792Z,19.13
2022-09-25T18:39:52.115Z,19.21
2022-09-25T18:42:18.421Z,19.08
2022-09-25T18:44:44.770Z,18.91
2022-09-25T18:47:11.527Z,18.86
2022-09-25T18:49:37.956Z,18.61
2022-09-25T18:52:04.772Z,18.22
2022-09-25T18:54:31.325Z,18.14
2022-09-25T18:56:58.494Z,18.01
2022-09-25T18:59:26.467Z,17.95
2022-09-25T19:01:54.481Z,17.65
2022-09-25T19:04:21.529Z,17.64
2022-09-25T19:06:48.761Z,17.67
2022-09-25T19:09:17.006Z,17.48
2022-09-25T19:11:44.438Z,17.93
2022-09-25T19:14:14.635Z,17.79
2022-09-25T19:16:41.010Z,17.65
2022-09-25T19:19:07.565Z,17.98
2022-09-25T19:21:35.107Z,17.90
2022-09-25T19:24:01.701Z,18.04
2022-09-25T19:26:28.190Z,17.76
2022-09-25T19:28:54.816Z,17.65
2022-09-25T19:31:23.592Z,17.95
2022-09-25T19:33:50.746Z,17.80
2022-09-25T19:36:22.063Z,17.67
2022-09-25T19:38:48.437Z,17.76
2022-09-25T19:41:26.146Z,17.85
2022-09-25T19:43:54.456Z,17.86
2022-09-25T19:46:21.261Z,17.86
2022-09-25T19:48:48.645Z,17.94
2022-09-25T19:51:16.983Z,17.65
2022-09-25T19:53:43.800Z,17.41
2022-09-25T19:56:13.897Z,17.36
2022-09-25T19:58:40.471Z,16.65
2022-09-25T20:01:26.788Z,16.86
2022-09-25T20:03:55.836Z,17.02
2022-09-25T20:06:23.404Z,17.26
2022-09-25T20:08:49.847Z,17.19
2022-09-25T20:11:22.161Z,17.40
2022-09-25T20:13:50.896Z,17.42
2022-09-25T20:16:19.732Z,17.08
2022-09-25T20:18:51.109Z,17.02
2022-09-25T20:21:21.247Z,17.15
2022-09-25T20:23:56.582Z,16.97
2022-09-25T20:26:23.977Z,16.82
2022-09-25T20:28:56.906Z,16.37
2022-09-25T20:31:23.939Z,16.58
2022-09-25T20:33:50.492Z,16.59
2022-09-25T20:36:17.877Z,17.09
2022-09-25T20:38:45.235Z,17.15
2022-09-25T20:41:13.097Z,17.01
2022-09-25T20:43:40.580Z,17.20
2022-09-25T20:46:12.793Z,17.10
2022-09-25T20:48:47.035Z,16.98
2022-09-25T20:51:18.530Z,16.86
2022-09-25T20:53:53.080Z,17.00
2022-09-25T20:56:20.486Z,16.95
2022-09-25T20:58:52.140Z,17.00
2022-09-25T21:01:22.691Z,17.21
2022-09-25T21:03:50.839Z,17.15
2022-09-25T21:06:23.139Z,17.17
2022-09-25T21:08:54.893Z,17.20
2022-09-25T21:11:21.975Z,17.06
2022-09-25T21:13:54.483Z,17.12
2022-09-25T21:16:22.358Z,16.99
2022-09-25T21:19:04.128Z,16.89
2022-09-25T21:21:31.862Z,16.68
2022-09-25T21:23:58.687Z,16.42
2022-09-25T21:26:27.573Z,16.11
2022-09-25T21:28:56.233Z,16.06
2022-09-25T21:31:25.671Z,16.24
2022-09-25T21:33:53.998Z,15.97
2022-09-25T21:36:21.422Z,16.14
2022-09-25T21:38:49.059Z,16.20
2022-09-25T21:41:17.976Z,16.64
2022-09-25T21:43:45.273Z,16.71
2022-09-25T21:46:14.403Z,16.83
2022-09-25T21:48:46.419Z,16.75
2022-09-25T21:51:12.950Z,16.17
2022-09-25T21:53:39.347Z,16.66
2022-09-25T21:56:13.748Z,16.80
2022-09-25T21:58:40.366Z,16.61
2022-09-25T22:01:18.578Z,16.57
2022-09-25T22:03:48.066Z,16.57
2022-09-25T22:06:18.251Z,16.66
2022-09-25T22:08:50.004Z,16.58
2022-09-25T22:11:17.351Z,16.35
2022-09-25T22:13:45.276Z,16.52
2022-09-25T22:16:32.848Z,16.36
2022-09-25T22:19:21.682Z,16.43
2022-09-25T22:21:49.904Z,16.43
2022-09-25T22:24:16.775Z,16.32
2022-09-25T22:26:44.739Z,16.28
2022-09-25T22:29:11.834Z,16.30
2022-09-25T22:31:42.925Z,16.44
2022-09-25T22:34:17.062Z,16.57
2022-09-25T22:36:44.152Z,16.52
2022-09-25T22:39:13.840Z,16.37
2022-09-25T22:41:40.626Z,16.20
2022-09-25T22:44:06.919Z,16.35
2022-09-25T22:46:33.256Z,16.01
2022-09-25T22:48:59.709Z,15.90
2022-09-25T22:51:26.328Z,15.89
2022-09-25T22:53:54.075Z,16.00
2022-09-25T22:56:24.247Z,16.21
2022-09-25T22:58:57.403Z,16.02
2022-09-25T23:01:29.303Z,16.19
2022-09-25T23:03:57.981Z,15.91
2022-09-25T23:06:25.238Z,16.03
2022-09-25T23:08:56.535Z,16.12
2022-09-25T23:11:23.931Z,15.98
2022-09-25T23:13:57.501Z,16.23
2022-09-25T23:16:24.020Z,16.23
2022-09-25T23:18:50.379Z,16.15
2022-09-25T23:21:16.762Z,16.03
2022-09-25T23:23:43.123Z,16.13
2022-09-25T23:26:09.841Z,16.04
2022-09-25T23:28:38.498Z,16.22
2022-09-25T23:31:10.801Z,16.13
2022-09-25T23:33:37.870Z,16.01
2022-09-25T23:36:06.087Z,16.05
2022-09-25T23:38:32.791Z,16.15
2022-09-25T23:40:59.207Z,15.97
2022-09-25T23:43:25.670Z,15.86
2022-09-25T23:45:52.052Z,15.91
2022-09-25T23:48:18.672Z,15.94
2022-09-25T23:50:45.094Z,16.19
2022-09-25T23:53:11.480Z,15.97
2022-09-25T23:55:42.438Z,15.92
2022-09-25T23:58:09.952Z,16.00
